Terminal Aerodrome Forecast
Issued by NWS Portland, ME

Home | Current Version | Previous Version | Text Only | Print | Product List | Glossary On
Versions: 1 2 3 4 5 6 7 8 9 10 11 12 13 14 15 16 17 18 19
937
FTUS41 KGYX 090531
TAFCON
TAF
KCON 090531Z 0906/1006 36004KT 1 1/2SM -SN OVC022
     FM090900 35005KT 3SM -SN BR OVC030
     FM091200 35004KT P6SM OVC025=

USA.gov is the U.S. government's official web portal to all federal, state and local government web resources and services.